createdAt,value
2022-08-05T00:01:36.467Z,46.13
2022-08-05T00:04:17.659Z,47.13
2022-08-05T00:06:47.214Z,46.82
2022-08-05T00:09:15.931Z,47.58
2022-08-05T00:11:49.143Z,47.05
2022-08-05T00:14:22.853Z,46.01
2022-08-05T00:16:56.454Z,46.04
2022-08-05T00:19:24.677Z,45.81
2022-08-05T00:21:52.613Z,45.27
2022-08-05T00:24:24.809Z,45.77
2022-08-05T00:26:58.597Z,45.88
2022-08-05T00:29:26.216Z,45.81
2022-08-05T00:32:12.765Z,45.11
2022-08-05T00:35:05.525Z,45.66
2022-08-05T00:37:50.738Z,45.75
2022-08-05T00:40:26.767Z,45.81
2022-08-05T00:42:58.018Z,46.43
2022-08-05T00:45:38.822Z,46.21
2022-08-05T00:48:15.933Z,47.50
2022-08-05T00:50:46.591Z,47.89
2022-08-05T00:54:00.841Z,47.44
2022-08-05T00:56:05.021Z,48.18
2022-08-05T00:58:32.173Z,47.79
2022-08-05T01:00:59.530Z,47.58
2022-08-05T01:03:30.924Z,47.99
2022-08-05T01:06:01.173Z,48.44
2022-08-05T01:08:43.437Z,48.88
2022-08-05T01:11:22.659Z,48.72
2022-08-05T01:14:04.414Z,48.40
2022-08-05T01:16:54.893Z,48.26
2022-08-05T01:19:46.254Z,47.85
2022-08-05T01:22:27.960Z,46.98
2022-08-05T01:25:53.242Z,46.48
2022-08-05T01:28:33.296Z,46.60
2022-08-05T01:31:14.774Z,46.59
2022-08-05T01:33:55.339Z,46.19
2022-08-05T01:36:28.209Z,46.26
2022-08-05T01:39:01.060Z,46.02
2022-08-05T01:41:32.614Z,46.32
2022-08-05T01:44:02.333Z,46.28
2022-08-05T01:46:42.488Z,46.00
2022-08-05T01:49:24.144Z,45.59
2022-08-05T01:52:00.225Z,46.01
2022-08-05T01:54:52.006Z,46.28
2022-08-05T01:58:29.305Z,46.25
2022-08-05T02:00:15.013Z,47.12
2022-08-05T02:02:46.424Z,46.72
2022-08-05T02:05:23.547Z,47.09
2022-08-05T02:08:00.076Z,46.97
2022-08-05T02:10:33.253Z,47.22
2022-08-05T02:13:16.128Z,47.79
2022-08-05T02:16:04.973Z,47.90
2022-08-05T02:18:49.733Z,47.83
2022-08-05T02:21:20.023Z,47.97
2022-08-05T02:23:52.424Z,47.91
2022-08-05T02:26:26.594Z,47.45
2022-08-05T02:28:56.492Z,47.93
2022-08-05T02:31:29.016Z,48.34
2022-08-05T02:34:09.275Z,48.51
2022-08-05T02:36:42.775Z,48.55
2022-08-05T02:39:11.302Z,48.05
2022-08-05T02:41:57.606Z,48.20
2022-08-05T02:44:28.975Z,47.49
2022-08-05T02:47:00.329Z,47.38
2022-08-05T02:49:36.831Z,47.69
2022-08-05T02:52:09.510Z,47.86
2022-08-05T02:54:42.254Z,47.79
2022-08-05T02:58:20.176Z,48.24
2022-08-05T03:00:03.053Z,48.48
2022-08-05T03:02:35.812Z,48.43
2022-08-05T03:05:05.497Z,48.55
2022-08-05T03:07:59.359Z,48.49
2022-08-05T03:10:21.814Z,48.35
2022-08-05T03:12:54.418Z,48.30
2022-08-05T03:15:24.393Z,48.08
2022-08-05T03:17:59.530Z,48.26
2022-08-05T03:20:27.299Z,48.45
2022-08-05T03:22:57.651Z,49.23
2022-08-05T03:25:32.587Z,48.94
2022-08-05T03:28:03.653Z,49.26
2022-08-05T03:30:35.095Z,48.88
2022-08-05T03:33:03.773Z,48.46
2022-08-05T03:35:33.861Z,48.84
2022-08-05T03:38:02.892Z,48.89
2022-08-05T03:40:31.847Z,48.99
2022-08-05T03:43:01.470Z,49.44
2022-08-05T03:45:58.170Z,49.70
2022-08-05T03:48:30.294Z,50.11
2022-08-05T03:52:39.292Z,49.89
2022-08-05T03:55:52.150Z,50.17
2022-08-05T03:57:29.074Z,49.92
2022-08-05T04:00:11.812Z,50.59
2022-08-05T04:02:57.708Z,50.30
2022-08-05T04:05:34.922Z,50.11
2022-08-05T04:08:05.655Z,49.55
2022-08-05T04:10:44.413Z,50.35
2022-08-05T04:13:12.017Z,50.05
2022-08-05T04:15:39.771Z,50.11
2022-08-05T04:18:27.213Z,51.06
2022-08-05T04:20:56.172Z,50.95
2022-08-05T04:24:05.676Z,50.99
2022-08-05T04:26:17.467Z,50.80
2022-08-05T04:28:50.725Z,50.39
2022-08-05T04:31:19.012Z,50.46
2022-08-05T04:34:18.940Z,50.00
2022-08-05T04:36:44.731Z,49.88
2022-08-05T04:39:14.118Z,49.41
2022-08-05T04:41:41.292Z,49.25
2022-08-05T04:44:09.508Z,49.41
2022-08-05T04:46:38.623Z,49.12
2022-08-05T04:49:14.413Z,49.04
2022-08-05T04:51:44.372Z,48.82
2022-08-05T04:54:12.274Z,48.22
2022-08-05T04:56:40.016Z,49.36
2022-08-05T04:59:21.840Z,49.15
2022-08-05T05:02:35.329Z,48.37
2022-08-05T05:04:44.136Z,47.71
2022-08-05T05:07:17.177Z,47.26
2022-08-05T05:09:45.892Z,47.13
2022-08-05T05:12:13.213Z,46.88
2022-08-05T05:14:49.146Z,46.56
2022-08-05T05:17:21.200Z,46.35
2022-08-05T05:19:53.034Z,46.76
2022-08-05T05:22:24.364Z,46.47
2022-08-05T05:24:59.819Z,46.78
2022-08-05T05:27:45.741Z,46.26
2022-08-05T05:30:31.443Z,46.03
2022-08-05T05:33:16.888Z,46.25
2022-08-05T05:35:48.275Z,46.40
2022-08-05T05:38:22.577Z,46.40
2022-08-05T05:40:56.082Z,46.50
2022-08-05T05:43:54.043Z,46.33
2022-08-05T05:46:17.590Z,46.03
2022-08-05T05:48:47.971Z,45.51
2022-08-05T05:51:20.615Z,44.81
2022-08-05T05:53:57.865Z,44.72
2022-08-05T05:56:31.861Z,45.06
2022-08-05T05:59:06.174Z,44.89
2022-08-05T06:01:40.001Z,45.12
2022-08-05T06:04:11.836Z,44.82
2022-08-05T06:06:47.431Z,44.87
2022-08-05T06:09:27.427Z,44.87
2022-08-05T06:12:05.775Z,44.18
2022-08-05T06:14:37.139Z,44.33
2022-08-05T06:17:22.031Z,44.39
2022-08-05T06:19:56.678Z,44.67
2022-08-05T06:22:33.741Z,44.98
2022-08-05T06:25:25.094Z,44.43
2022-08-05T06:28:12.677Z,43.75
2022-08-05T06:30:37.773Z,43.32
2022-08-05T06:33:05.020Z,42.77
2022-08-05T06:36:07.011Z,42.81
2022-08-05T06:38:35.899Z,42.31
2022-08-05T06:41:08.183Z,42.55
2022-08-05T06:43:59.266Z,42.47
2022-08-05T06:46:30.348Z,42.78
2022-08-05T06:49:00.731Z,42.85
2022-08-05T06:51:29.931Z,42.47
2022-08-05T06:54:02.533Z,42.36
2022-08-05T06:56:33.893Z,42.11
2022-08-05T06:59:09.468Z,42.30
2022-08-05T07:01:40.462Z,42.16
2022-08-05T07:04:08.417Z,42.29
2022-08-05T07:06:35.774Z,41.38
2022-08-05T07:09:04.754Z,40.80
2022-08-05T07:11:36.777Z,39.61
2022-08-05T07:14:30.313Z,39.46
2022-08-05T07:17:58.597Z,39.23
2022-08-05T07:22:38.664Z,41.14
2022-08-05T07:25:23.553Z,39.77
2022-08-05T07:28:00.114Z,38.57
2022-08-05T07:30:33.702Z,38.93
2022-08-05T07:33:09.451Z,39.39
2022-08-05T07:36:03.458Z,38.93
2022-08-05T07:38:33.471Z,39.20
2022-08-05T07:42:09.286Z,38.50
2022-08-05T07:43:57.129Z,38.52
2022-08-05T07:46:26.830Z,38.07
2022-08-05T07:49:05.006Z,37.91
2022-08-05T07:51:40.347Z,38.80
2022-08-05T07:54:10.555Z,38.64
2022-08-05T07:57:02.704Z,38.55
2022-08-05T07:59:38.176Z,38.26
2022-08-05T08:02:16.596Z,37.76
2022-08-05T08:04:49.360Z,37.76
2022-08-05T08:07:22.381Z,38.09
2022-08-05T08:09:53.147Z,38.08
2022-08-05T08:12:27.430Z,37.46
2022-08-05T08:15:09.625Z,37.18
2022-08-05T08:17:49.876Z,37.48
2022-08-05T08:20:45.293Z,36.63
2022-08-05T08:23:59.963Z,36.29
2022-08-05T08:26:02.688Z,36.57
2022-08-05T08:28:36.482Z,36.65
2022-08-05T08:31:10.024Z,35.79
2022-08-05T08:33:45.338Z,35.28
2022-08-05T08:36:38.428Z,35.30
2022-08-05T08:39:00.057Z,35.21
2022-08-05T08:41:52.102Z,34.87
2022-08-05T08:45:18.731Z,34.49
2022-08-05T08:47:21.905Z,34.15
2022-08-05T08:50:06.048Z,33.83
2022-08-05T08:52:54.573Z,34.15
2022-08-05T08:55:31.877Z,33.34
2022-08-05T08:58:12.909Z,34.50
2022-08-05T09:00:42.035Z,34.45
2022-08-05T09:03:11.746Z,33.49
2022-08-05T09:06:08.765Z,32.55
2022-08-05T09:08:30.693Z,32.50
2022-08-05T09:10:58.692Z,31.60
2022-08-05T09:13:31.409Z,32.12
2022-08-05T09:15:59.853Z,32.42
2022-08-05T09:18:27.333Z,32.33
2022-08-05T09:20:54.851Z,32.35
2022-08-05T09:23:23.445Z,31.93
2022-08-05T09:26:09.351Z,32.07
2022-08-05T09:28:39.727Z,31.89
2022-08-05T09:31:23.318Z,31.66
2022-08-05T09:34:05.551Z,30.68
2022-08-05T09:36:55.377Z,30.58
2022-08-05T09:39:41.571Z,29.98
2022-08-05T09:42:24.399Z,29.88
2022-08-05T09:45:03.129Z,29.72
2022-08-05T09:47:36.314Z,30.06
2022-08-05T09:50:37.683Z,29.52
2022-08-05T09:53:06.332Z,29.44
2022-08-05T09:55:57.382Z,29.45
2022-08-05T09:58:24.821Z,28.42
2022-08-05T10:01:15.393Z,28.19
2022-08-05T10:03:59.399Z,28.69
2022-08-05T10:06:31.069Z,28.76
2022-08-05T10:09:28.279Z,28.08
2022-08-05T10:12:30.199Z,28.62
2022-08-05T10:15:20.675Z,28.66
2022-08-05T10:18:07.852Z,28.08
2022-08-05T10:20:38.973Z,28.69
2022-08-05T10:23:08.905Z,27.99
2022-08-05T10:25:57.573Z,27.43
2022-08-05T10:28:29.185Z,26.73
2022-08-05T10:32:49.433Z,27.00
2022-08-05T10:33:52.375Z,27.33
2022-08-05T10:36:23.743Z,28.40
2022-08-05T10:39:01.190Z,28.40
2022-08-05T10:41:46.742Z,28.13
2022-08-05T10:44:18.706Z,28.67
2022-08-05T10:46:53.990Z,28.15
2022-08-05T10:49:27.100Z,27.53
2022-08-05T10:52:05.020Z,26.81
2022-08-05T10:55:05.767Z,27.22
2022-08-05T10:57:33.938Z,26.41
2022-08-05T11:00:19.067Z,26.45
2022-08-05T11:13:54.739Z,26.93
2022-08-05T11:16:33.608Z,26.39
2022-08-05T11:20:10.721Z,26.33
2022-08-05T11:22:44.335Z,26.14
2022-08-05T11:26:04.085Z,26.35
2022-08-05T11:28:24.902Z,26.41
2022-08-05T11:31:06.731Z,26.62
2022-08-05T11:33:45.997Z,26.12
2022-08-05T11:36:34.270Z,26.56
2022-08-05T11:39:09.704Z,25.53
2022-08-05T11:42:02.085Z,25.32
2022-08-05T11:44:40.298Z,25.02
2022-08-05T11:47:11.210Z,25.57
2022-08-05T11:49:49.781Z,24.77
2022-08-05T11:52:29.193Z,24.33
2022-08-05T11:54:59.253Z,24.25
2022-08-05T11:57:39.329Z,25.02
2022-08-05T12:00:30.863Z,24.46
2022-08-05T12:02:58.422Z,24.51
2022-08-05T12:05:36.173Z,23.91
2022-08-05T12:08:11.247Z,23.93
2022-08-05T12:10:45.316Z,24.00
2022-08-05T12:13:28.031Z,22.98
2022-08-05T12:16:14.458Z,23.54
2022-08-05T12:18:52.220Z,23.63
2022-08-05T12:21:30.291Z,23.88
2022-08-05T12:24:07.399Z,23.91
2022-08-05T12:26:36.118Z,23.60
2022-08-05T12:29:09.778Z,22.74
2022-08-05T12:31:53.650Z,23.49
2022-08-05T12:34:28.817Z,23.39
2022-08-05T12:36:58.494Z,23.14
2022-08-05T12:39:27.883Z,22.93
2022-08-05T12:42:02.334Z,23.55
2022-08-05T12:44:34.181Z,23.64
2022-08-05T12:47:02.747Z,23.15
2022-08-05T12:50:03.483Z,23.26
2022-08-05T12:52:41.709Z,23.23
2022-08-05T12:55:32.521Z,22.84
2022-08-05T12:58:52.568Z,22.89
2022-08-05T13:02:00.941Z,22.61
2022-08-05T13:03:43.302Z,22.29
2022-08-05T13:06:16.381Z,22.18
2022-08-05T13:08:49.131Z,23.04
2022-08-05T13:12:01.102Z,23.17
2022-08-05T13:14:37.577Z,22.88
2022-08-05T13:17:31.640Z,22.51
2022-08-05T13:20:18.198Z,22.50
2022-08-05T13:22:51.532Z,22.98
2022-08-05T13:25:21.942Z,22.38
2022-08-05T13:27:52.133Z,22.89
2022-08-05T13:30:34.658Z,22.71
2022-08-05T13:33:04.417Z,22.74
2022-08-05T13:35:47.114Z,22.38
2022-08-05T13:38:30.482Z,22.12
2022-08-05T13:41:01.515Z,22.43
2022-08-05T13:43:45.652Z,21.93
2022-08-05T13:46:35.854Z,22.49
2022-08-05T13:49:05.005Z,21.66
2022-08-05T13:51:41.147Z,21.69
2022-08-05T13:54:12.666Z,22.53
2022-08-05T13:56:50.410Z,22.47
2022-08-05T13:59:27.284Z,22.48
2022-08-05T14:01:58.755Z,22.66
2022-08-05T14:04:51.846Z,22.75
2022-08-05T14:07:26.337Z,22.90
2022-08-05T14:10:18.880Z,23.02
2022-08-05T14:12:48.942Z,23.01
2022-08-05T14:16:08.113Z,23.03
2022-08-05T14:18:04.821Z,22.76
2022-08-05T14:20:32.253Z,23.19
2022-08-05T14:23:00.132Z,22.35
2022-08-05T14:25:30.187Z,22.64
2022-08-05T14:27:58.462Z,23.14
2022-08-05T14:30:28.001Z,22.78
2022-08-05T14:32:56.917Z,22.98
2022-08-05T14:35:37.483Z,23.24
2022-08-05T14:38:32.761Z,23.93
2022-08-05T14:40:59.772Z,24.16
2022-08-05T14:43:58.832Z,24.39
2022-08-05T14:46:14.734Z,25.55
2022-08-05T14:48:41.858Z,25.57
2022-08-05T14:51:09.814Z,25.84
2022-08-05T14:53:44.450Z,26.82
2022-08-05T14:56:13.323Z,26.78
2022-08-05T14:58:47.713Z,28.11
2022-08-05T15:01:47.089Z,27.61
2022-08-05T15:04:11.620Z,27.82
2022-08-05T15:06:40.527Z,28.77
2022-08-05T15:09:08.052Z,28.83
2022-08-05T15:11:52.348Z,29.54
2022-08-05T15:14:35.837Z,30.41
2022-08-05T15:17:44.461Z,30.22
2022-08-05T15:19:57.173Z,30.13
2022-08-05T15:22:26.997Z,29.96
2022-08-05T15:24:56.453Z,30.48
2022-08-05T15:27:25.472Z,31.09
2022-08-05T15:29:56.629Z,32.16
2022-08-05T15:32:28.862Z,32.81
2022-08-05T15:34:57.619Z,33.74
2022-08-05T15:38:09.295Z,33.76
2022-08-05T15:41:01.275Z,33.95
2022-08-05T15:43:12.688Z,34.52
2022-08-05T15:45:46.084Z,34.39
2022-08-05T15:48:15.426Z,34.53
2022-08-05T15:50:43.766Z,35.34
2022-08-05T15:53:13.852Z,35.91
2022-08-05T15:56:04.010Z,36.20
2022-08-05T15:58:35.711Z,35.94
2022-08-05T16:01:16.610Z,36.35
2022-08-05T16:03:48.613Z,37.01
2022-08-05T16:06:20.206Z,36.69
2022-08-05T16:08:50.314Z,36.04
2022-08-05T16:11:20.807Z,36.37
2022-08-05T16:14:06.172Z,36.68
2022-08-05T16:16:33.933Z,36.63
2022-08-05T16:19:01.212Z,36.55
2022-08-05T16:21:58.273Z,36.67
2022-08-05T16:24:39.864Z,36.88
2022-08-05T16:27:04.460Z,36.98
2022-08-05T16:29:37.581Z,36.71
2022-08-05T16:32:09.668Z,36.98
2022-08-05T16:34:39.229Z,37.33
2022-08-05T16:38:02.700Z,37.40
2022-08-05T16:40:04.295Z,37.87
2022-08-05T16:42:34.927Z,37.44
2022-08-05T16:45:06.058Z,37.93
2022-08-05T16:47:54.320Z,37.72
2022-08-05T16:50:24.653Z,37.51
2022-08-05T16:52:51.895Z,37.52
2022-08-05T16:55:20.454Z,37.60
2022-08-05T16:57:59.752Z,37.69
2022-08-05T17:00:34.416Z,38.01
2022-08-05T17:03:03.820Z,38.48
2022-08-05T17:05:37.019Z,38.74
2022-08-05T17:08:05.141Z,39.04
2022-08-05T17:10:35.132Z,38.41
2022-08-05T17:13:04.972Z,38.24
2022-08-05T17:15:48.937Z,38.37
2022-08-05T17:18:18.907Z,38.07
2022-08-05T17:20:46.334Z,38.29
2022-08-05T17:23:41.978Z,38.50
2022-08-05T17:26:02.262Z,38.64
2022-08-05T17:28:29.749Z,38.69
2022-08-05T17:30:57.065Z,38.63
2022-08-05T17:33:25.895Z,38.80
2022-08-05T17:36:09.197Z,38.78
2022-08-05T17:38:39.705Z,39.05
2022-08-05T17:41:22.800Z,39.22
2022-08-05T17:43:55.776Z,39.36
2022-08-05T17:46:25.175Z,39.11
2022-08-05T17:48:52.622Z,39.60
2022-08-05T17:51:21.579Z,39.38
2022-08-05T17:53:50.929Z,39.22
2022-08-05T17:56:22.840Z,39.40
2022-08-05T17:58:51.088Z,39.34
2022-08-05T18:01:19.101Z,39.42
2022-08-05T18:03:59.550Z,39.76
2022-08-05T18:06:32.435Z,39.34
2022-08-05T18:08:59.814Z,39.62
2022-08-05T18:11:33.221Z,39.58
2022-08-05T18:14:13.690Z,39.85
2022-08-05T18:16:52.244Z,39.87
2022-08-05T18:19:22.823Z,39.89
2022-08-05T18:22:09.592Z,40.00
2022-08-05T18:24:39.582Z,40.03
2022-08-05T18:27:12.551Z,39.95
2022-08-05T18:29:53.629Z,40.26
2022-08-05T18:32:28.321Z,39.83
2022-08-05T18:34:57.414Z,40.04
2022-08-05T18:37:33.616Z,40.46
2022-08-05T18:40:34.545Z,40.50
2022-08-05T18:42:55.517Z,40.62
2022-08-05T18:45:23.146Z,40.40
2022-08-05T18:47:56.813Z,40.21
2022-08-05T18:50:46.356Z,40.48
2022-08-05T18:53:19.218Z,40.45
2022-08-05T18:55:49.693Z,40.68
2022-08-05T18:58:16.973Z,40.24
2022-08-05T19:00:44.359Z,40.57
2022-08-05T19:03:15.613Z,40.33
2022-08-05T19:06:13.369Z,40.46
2022-08-05T19:08:31.250Z,40.18
2022-08-05T19:11:04.876Z,40.06
2022-08-05T19:13:35.560Z,39.82
2022-08-05T19:16:04.132Z,39.86
2022-08-05T19:18:32.296Z,40.15
2022-08-05T19:21:00.014Z,40.36
2022-08-05T19:24:05.377Z,40.43
2022-08-05T19:26:16.852Z,40.74
2022-08-05T19:28:44.189Z,40.31
2022-08-05T19:31:17.890Z,40.30
2022-08-05T19:33:48.401Z,40.33
2022-08-05T19:36:25.216Z,40.37
2022-08-05T19:38:55.194Z,39.97
2022-08-05T19:42:05.621Z,41.31
2022-08-05T19:44:15.853Z,41.81
2022-08-05T19:46:43.770Z,41.55
2022-08-05T19:49:16.394Z,41.71
2022-08-05T19:52:08.238Z,41.85
2022-08-05T19:54:34.245Z,42.12
2022-08-05T19:57:09.508Z,42.05
2022-08-05T20:00:01.247Z,42.27
2022-08-05T20:02:27.718Z,41.66
2022-08-05T20:04:58.959Z,41.71
2022-08-05T20:07:46.567Z,41.14
2022-08-05T20:10:17.447Z,41.47
2022-08-05T20:12:49.094Z,41.86
2022-08-05T20:15:23.302Z,41.79
2022-08-05T20:18:10.238Z,41.69
2022-08-05T20:20:55.345Z,41.96
2022-08-05T20:23:39.653Z,42.07
2022-08-05T20:26:15.213Z,41.47
2022-08-05T20:28:45.733Z,41.10
2022-08-05T20:31:13.253Z,40.67
2022-08-05T20:33:42.326Z,40.45
2022-08-05T20:36:11.231Z,40.24
2022-08-05T20:38:40.848Z,40.08
2022-08-05T20:41:23.993Z,40.66
2022-08-05T20:43:58.969Z,40.36
2022-08-05T20:46:30.541Z,40.75
2022-08-05T20:48:59.093Z,41.66
2022-08-05T20:51:26.733Z,42.54
2022-08-05T20:53:56.532Z,42.34
2022-08-05T20:56:31.022Z,41.74
2022-08-05T20:59:13.943Z,41.50
2022-08-05T21:01:43.355Z,41.20
2022-08-05T21:04:10.881Z,41.38
2022-08-05T21:06:45.056Z,41.87
2022-08-05T21:09:14.924Z,41.51
2022-08-05T21:12:09.587Z,41.33
2022-08-05T21:14:34.795Z,40.49
2022-08-05T21:17:06.388Z,40.39
2022-08-05T21:19:46.631Z,40.22
2022-08-05T21:22:17.719Z,40.13
2022-08-05T21:24:48.895Z,39.66
2022-08-05T21:27:18.773Z,39.40
2022-08-05T21:29:48.657Z,39.63
2022-08-05T21:32:27.122Z,39.96
2022-08-05T21:35:09.032Z,39.98
2022-08-05T21:37:47.195Z,39.93
2022-08-05T21:40:16.659Z,39.50
2022-08-05T21:42:45.791Z,39.63
2022-08-05T21:45:25.138Z,38.78
2022-08-05T21:48:06.241Z,38.40
2022-08-05T21:50:34.981Z,38.25
2022-08-05T21:53:17.463Z,37.81
2022-08-05T21:56:05.688Z,37.60
2022-08-05T21:58:33.253Z,37.28
2022-08-05T22:01:00.754Z,37.31
2022-08-05T22:03:52.379Z,36.77
2022-08-05T22:06:22.557Z,36.71
2022-08-05T22:08:52.199Z,36.52
2022-08-05T22:11:35.425Z,36.19
2022-08-05T22:14:19.716Z,36.76
2022-08-05T22:16:56.984Z,37.34
2022-08-05T22:20:01.394Z,37.58
2022-08-05T22:22:14.428Z,38.42
2022-08-05T22:25:01.014Z,38.42
2022-08-05T22:28:09.438Z,37.31
2022-08-05T22:30:35.282Z,37.20
2022-08-05T22:33:15.729Z,37.83
2022-08-05T22:35:48.566Z,37.63
2022-08-05T22:38:16.733Z,37.82
2022-08-05T22:40:50.128Z,37.53
2022-08-05T22:43:36.872Z,38.07
2022-08-05T22:46:12.192Z,38.41
2022-08-05T22:48:41.048Z,39.72
2022-08-05T22:51:16.085Z,39.82
2022-08-05T22:53:51.998Z,40.21
2022-08-05T22:56:30.326Z,40.90
2022-08-05T22:59:04.123Z,41.00
2022-08-05T23:02:04.293Z,40.91
2022-08-05T23:04:32.773Z,41.25
2022-08-05T23:07:00.090Z,41.59
2022-08-05T23:09:58.428Z,41.11
2022-08-05T23:12:16.621Z,41.86
2022-08-05T23:14:44.493Z,41.33
2022-08-05T23:17:32.699Z,40.67
2022-08-05T23:20:16.410Z,41.51
2022-08-05T23:22:47.240Z,41.09
2022-08-05T23:25:17.149Z,41.62
2022-08-05T23:28:07.197Z,41.63
2022-08-05T23:30:40.226Z,42.84
2022-08-05T23:33:22.109Z,42.48
2022-08-05T23:35:55.988Z,42.72
2022-08-05T23:38:26.919Z,43.07
2022-08-05T23:40:54.452Z,43.00
2022-08-05T23:43:25.443Z,42.41
2022-08-05T23:46:19.654Z,42.96
2022-08-05T23:48:59.608Z,43.00
2022-08-05T23:51:55.461Z,43.76
2022-08-05T23:54:36.537Z,43.88
2022-08-05T23:57:07.420Z,43.81
